createdAt,value
2022-10-20T00:01:43.075Z,8.23
2022-10-20T00:04:09.705Z,10.02
2022-10-20T00:06:36.151Z,8.63
2022-10-20T00:09:04.201Z,8.00
2022-10-20T00:11:31.954Z,6.97
2022-10-20T00:14:00.206Z,7.55
2022-10-20T00:16:28.925Z,8.93
2022-10-20T00:18:57.091Z,5.78
2022-10-20T00:21:25.637Z,8.13
2022-10-20T00:23:52.802Z,12.00
2022-10-20T00:26:24.444Z,14.80
2022-10-20T00:31:18.867Z,6.05
2022-10-20T00:33:45.678Z,5.25
2022-10-20T00:36:15.088Z,8.02
2022-10-20T00:38:42.201Z,6.28
2022-10-20T00:41:09.954Z,6.00
2022-10-20T00:44:24.329Z,7.78
2022-10-20T00:46:50.758Z,4.90
2022-10-20T00:49:25.846Z,4.80
2022-10-20T00:51:54.381Z,10.30
2022-10-20T00:54:27.531Z,5.50
2022-10-20T00:56:56.587Z,7.00
2022-10-20T00:59:31.634Z,9.60
2022-10-20T01:01:59.584Z,4.22
2022-10-20T01:04:29.288Z,6.68
2022-10-20T01:07:14.081Z,7.95
2022-10-20T01:09:40.592Z,12.57
2022-10-20T01:12:40.106Z,5.30
2022-10-20T01:15:15.766Z,6.20
2022-10-20T01:17:57.217Z,6.30
2022-10-20T01:20:29.690Z,10.77
2022-10-20T01:23:27.035Z,8.32
2022-10-20T01:25:59.746Z,7.38
2022-10-20T01:28:52.022Z,6.95
2022-10-20T01:31:30.292Z,7.75
2022-10-20T01:34:22.190Z,5.72
2022-10-20T01:39:34.192Z,11.20
2022-10-20T01:42:07.646Z,4.65
2022-10-20T01:44:36.364Z,5.82
2022-10-20T01:47:03.811Z,7.38
2022-10-20T01:49:30.317Z,8.23
2022-10-20T01:51:57.026Z,12.95
2022-10-20T01:54:29.304Z,5.60
2022-10-20T01:57:07.617Z,7.95
2022-10-20T01:59:39.886Z,6.63
2022-10-20T02:02:26.951Z,6.72
2022-10-20T02:05:24.290Z,4.28
2022-10-20T02:07:53.246Z,5.10
2022-10-20T02:10:26.427Z,5.95
2022-10-20T02:13:00.733Z,9.25
2022-10-20T02:15:30.821Z,10.35
2022-10-20T02:18:03.181Z,6.22
2022-10-20T02:20:31.389Z,8.20
2022-10-20T02:22:59.774Z,4.75
2022-10-20T02:25:28.271Z,4.65
2022-10-20T02:27:57.093Z,6.07
2022-10-20T02:30:23.967Z,6.05
2022-10-20T02:32:52.743Z,7.50
2022-10-20T02:35:22.765Z,6.72
2022-10-20T02:37:49.612Z,6.90
2022-10-20T02:40:16.154Z,5.65
2022-10-20T02:42:43.415Z,5.50
2022-10-20T02:45:11.072Z,6.25
2022-10-20T02:47:37.789Z,4.53
2022-10-20T02:50:05.702Z,10.55
2022-10-20T02:52:32.179Z,6.45
2022-10-20T02:54:58.646Z,9.98
2022-10-20T02:57:25.121Z,6.50
2022-10-20T02:59:51.827Z,6.32
2022-10-20T03:02:18.411Z,6.30
2022-10-20T03:04:44.849Z,9.07
2022-10-20T03:07:12.621Z,8.82
2022-10-20T03:09:39.102Z,6.68
2022-10-20T03:12:05.987Z,8.27
2022-10-20T03:14:32.405Z,8.15
2022-10-20T03:16:58.833Z,7.28
2022-10-20T03:19:25.253Z,6.97
2022-10-20T03:21:51.873Z,7.25
2022-10-20T03:24:18.427Z,8.63
2022-10-20T03:26:44.831Z,8.30
2022-10-20T03:29:11.254Z,6.35
2022-10-20T03:31:37.744Z,8.38
2022-10-20T03:34:04.219Z,7.30
2022-10-20T03:36:30.661Z,6.93
2022-10-20T03:38:57.104Z,8.82
2022-10-20T03:41:23.528Z,7.20
2022-10-20T03:43:49.950Z,8.75
2022-10-20T03:46:16.384Z,7.65
2022-10-20T03:48:42.832Z,7.63
2022-10-20T03:51:09.590Z,8.75
2022-10-20T03:53:36.014Z,8.40
2022-10-20T03:56:07.281Z,9.98
2022-10-20T03:58:33.724Z,9.35
2022-10-20T04:01:00.198Z,8.48
2022-10-20T04:03:26.655Z,6.65
2022-10-20T04:05:53.098Z,7.57
2022-10-20T04:08:19.535Z,9.45
2022-10-20T04:10:46.186Z,12.25
2022-10-20T04:13:12.656Z,12.68
2022-10-20T04:15:39.057Z,9.30
2022-10-20T04:18:05.527Z,10.98
2022-10-20T04:20:31.944Z,14.75
2022-10-20T04:22:58.499Z,12.90
2022-10-20T04:25:24.939Z,23.80
2022-10-20T04:27:51.365Z,13.57
2022-10-20T04:30:17.842Z,13.35
2022-10-20T04:32:44.317Z,12.52
2022-10-20T04:35:10.936Z,11.60
2022-10-20T04:37:37.721Z,13.02
2022-10-20T04:40:04.786Z,9.55
2022-10-20T04:42:31.751Z,8.27
2022-10-20T04:47:34.087Z,11.95
2022-10-20T04:50:00.669Z,16.80
2022-10-20T04:52:28.830Z,11.45
2022-10-20T04:54:55.384Z,16.90
2022-10-20T04:57:22.125Z,12.82
2022-10-20T04:59:48.597Z,17.50
2022-10-20T05:02:15.236Z,10.13
2022-10-20T05:04:41.951Z,16.73
2022-10-20T05:07:08.357Z,14.98
2022-10-20T05:09:34.771Z,14.60
2022-10-20T05:12:01.294Z,12.23
2022-10-20T05:14:27.713Z,16.85
2022-10-20T05:16:55.214Z,11.10
2022-10-20T05:19:21.770Z,11.13
2022-10-20T05:21:48.172Z,12.13
2022-10-20T05:24:20.106Z,13.45
2022-10-20T05:26:48.571Z,13.13
2022-10-20T05:29:15.046Z,14.27
2022-10-20T05:31:43.713Z,11.50
2022-10-20T05:34:11.390Z,16.02
2022-10-20T05:36:38.255Z,14.65
2022-10-20T05:39:04.757Z,11.15
2022-10-20T05:41:36.295Z,13.45
2022-10-20T05:44:08.515Z,26.02
2022-10-20T05:46:38.401Z,15.80
2022-10-20T05:49:04.924Z,16.00
2022-10-20T05:51:34.703Z,12.32
2022-10-20T05:54:01.573Z,16.92
2022-10-20T05:56:29.575Z,15.40
2022-10-20T05:58:56.488Z,15.30
2022-10-20T06:01:25.546Z,13.13
2022-10-20T06:03:56.233Z,14.85
2022-10-20T06:06:25.927Z,15.18
2022-10-20T06:08:53.562Z,12.55
2022-10-20T06:11:21.758Z,15.52
2022-10-20T06:13:51.746Z,18.58
2022-10-20T06:16:22.109Z,15.75
2022-10-20T06:18:49.477Z,17.05
2022-10-20T06:21:19.461Z,12.05
2022-10-20T06:23:45.966Z,17.65
2022-10-20T06:26:17.377Z,14.18
2022-10-20T06:28:45.092Z,14.15
2022-10-20T06:31:11.927Z,16.17
2022-10-20T06:33:38.837Z,19.73
2022-10-20T06:36:05.519Z,18.77
2022-10-20T06:38:32.016Z,13.45
2022-10-20T06:41:02.351Z,20.77
2022-10-20T06:43:28.769Z,11.90
2022-10-20T06:46:00.089Z,16.77
2022-10-20T06:48:27.525Z,16.98
2022-10-20T06:50:58.624Z,18.77
2022-10-20T06:53:26.002Z,15.32
2022-10-20T06:55:59.936Z,15.77
2022-10-20T06:58:27.530Z,16.65
2022-10-20T07:01:03.523Z,13.93
2022-10-20T07:03:35.403Z,14.55
2022-10-20T07:06:02.641Z,14.52
2022-10-20T07:08:31.689Z,13.63
2022-10-20T07:11:19.289Z,18.23
2022-10-20T07:13:46.368Z,15.20
2022-10-20T07:16:15.365Z,15.43
2022-10-20T07:18:41.874Z,13.80
2022-10-20T07:21:11.792Z,14.70
2022-10-20T07:23:38.376Z,18.27
2022-10-20T07:26:07.463Z,15.52
2022-10-20T07:28:35.828Z,15.68
2022-10-20T07:31:07.776Z,13.75
2022-10-20T07:33:34.647Z,18.63
2022-10-20T07:36:01.635Z,16.13
2022-10-20T07:38:28.351Z,16.13
2022-10-20T07:41:02.343Z,21.50
2022-10-20T07:43:28.809Z,19.75
2022-10-20T07:45:55.262Z,16.70
2022-10-20T07:48:21.754Z,14.10
2022-10-20T07:50:48.193Z,13.13
2022-10-20T07:53:14.580Z,12.63
2022-10-20T07:55:41.011Z,11.38
2022-10-20T07:58:07.418Z,10.82
2022-10-20T08:00:33.944Z,10.52
2022-10-20T08:03:00.466Z,13.90
2022-10-20T08:05:27.248Z,12.68
2022-10-20T08:07:53.635Z,10.68
2022-10-20T08:10:20.047Z,12.32
2022-10-20T08:12:46.498Z,10.15
2022-10-20T08:15:12.933Z,8.93
2022-10-20T08:17:39.403Z,11.05
2022-10-20T08:20:17.388Z,13.68
2022-10-20T08:22:43.829Z,12.00
2022-10-20T08:25:14.785Z,12.88
2022-10-20T08:27:41.335Z,13.50
2022-10-20T08:30:22.773Z,9.80
2022-10-20T08:32:53.756Z,14.75
2022-10-20T08:35:21.329Z,11.80
2022-10-20T08:37:47.922Z,17.73
2022-10-20T08:40:20.688Z,10.90
2022-10-20T08:42:48.240Z,10.35
2022-10-20T08:45:17.257Z,13.45
2022-10-20T08:47:45.552Z,11.23
2022-10-20T08:50:16.650Z,9.25
2022-10-20T08:52:44.890Z,14.70
2022-10-20T08:55:24.745Z,11.80
2022-10-20T08:57:51.276Z,8.73
2022-10-20T09:00:21.765Z,8.15
2022-10-20T09:02:50.256Z,12.43
2022-10-20T09:05:35.214Z,9.77
2022-10-20T09:08:02.273Z,13.57
2022-10-20T09:10:36.196Z,7.45
2022-10-20T09:13:09.065Z,13.52
2022-10-20T09:15:37.080Z,14.30
2022-10-20T09:18:09.220Z,8.07
2022-10-20T09:21:00.504Z,6.82
2022-10-20T09:23:43.349Z,9.70
2022-10-20T09:26:30.677Z,6.07
2022-10-20T09:29:14.699Z,9.68
2022-10-20T09:31:41.735Z,11.02
2022-10-20T09:34:31.059Z,13.13
2022-10-20T09:37:06.552Z,11.82
2022-10-20T09:39:56.123Z,9.15
2022-10-20T09:42:28.737Z,6.38
2022-10-20T09:45:00.172Z,9.13
2022-10-20T09:47:27.937Z,9.02
2022-10-20T09:50:08.714Z,9.23
2022-10-20T09:52:47.398Z,13.35
2022-10-20T09:55:27.225Z,13.15
2022-10-20T09:57:55.841Z,9.98
2022-10-20T10:00:36.888Z,9.48
2022-10-20T10:03:21.582Z,13.57
2022-10-20T10:05:56.916Z,9.63
2022-10-20T10:08:26.463Z,12.75
2022-10-20T10:11:05.351Z,11.65
2022-10-20T10:13:41.460Z,7.97
2022-10-20T10:16:16.222Z,9.20
2022-10-20T10:18:48.477Z,5.85
2022-10-20T10:21:17.433Z,7.30
2022-10-20T10:24:28.471Z,11.63
2022-10-20T10:26:56.586Z,11.35
2022-10-20T10:29:22.957Z,7.93
2022-10-20T10:31:52.558Z,8.55
2022-10-20T10:34:18.952Z,6.30
2022-10-20T10:36:45.397Z,9.93
2022-10-20T10:39:15.843Z,10.15
2022-10-20T10:44:35.685Z,5.07
2022-10-20T10:47:19.873Z,9.35
2022-10-20T10:50:24.546Z,6.85
2022-10-20T10:52:55.760Z,14.75
2022-10-20T10:55:48.716Z,10.75
2022-10-20T10:58:46.228Z,10.35
2022-10-20T11:01:15.894Z,8.52
2022-10-20T11:04:03.675Z,5.57
2022-10-20T11:07:04.327Z,5.97
2022-10-20T11:09:50.885Z,9.93
2022-10-20T11:12:29.201Z,11.30
2022-10-20T11:14:58.405Z,13.45
2022-10-20T11:18:12.100Z,8.25
2022-10-20T11:20:45.397Z,6.25
2022-10-20T11:26:18.138Z,8.55
2022-10-20T11:28:48.140Z,15.73
2022-10-20T11:31:40.493Z,8.35
2022-10-20T11:34:14.785Z,4.97
2022-10-20T11:36:53.032Z,7.03
2022-10-20T11:39:38.129Z,6.95
2022-10-20T11:42:25.597Z,5.57
2022-10-20T11:44:55.511Z,5.93
2022-10-20T11:47:31.915Z,9.80
2022-10-20T11:49:58.831Z,12.30
2022-10-20T11:52:39.008Z,4.28
2022-10-20T11:55:27.251Z,5.85
2022-10-20T11:58:02.826Z,15.50
2022-10-20T12:00:59.713Z,12.25
2022-10-20T12:03:48.562Z,5.95
2022-10-20T12:06:54.507Z,6.55
2022-10-20T12:09:55.428Z,5.03
2022-10-20T12:12:33.148Z,7.07
2022-10-20T12:15:01.700Z,5.70
2022-10-20T12:17:35.718Z,8.80
2022-10-20T12:20:20.652Z,9.07
2022-10-20T12:22:47.962Z,6.22
2022-10-20T12:25:17.161Z,6.18
2022-10-20T12:27:43.612Z,6.78
2022-10-20T12:30:37.950Z,5.40
2022-10-20T12:33:19.332Z,6.80
2022-10-20T12:36:14.669Z,7.70
2022-10-20T12:38:42.991Z,9.55
2022-10-20T12:41:12.398Z,8.85
2022-10-20T12:43:51.168Z,9.02
2022-10-20T12:46:26.121Z,7.22
2022-10-20T12:49:00.186Z,5.70
2022-10-20T12:51:49.047Z,6.90
2022-10-20T12:54:26.698Z,4.72
2022-10-20T12:57:02.566Z,4.45
2022-10-20T12:59:28.913Z,7.32
2022-10-20T13:02:09.845Z,6.80
2022-10-20T13:04:58.056Z,8.60
2022-10-20T13:07:46.545Z,8.43
2022-10-20T13:10:29.059Z,5.40
2022-10-20T13:13:01.263Z,7.28
2022-10-20T13:15:38.985Z,7.68
2022-10-20T13:18:11.724Z,5.20
2022-10-20T13:20:56.586Z,6.28
2022-10-20T13:23:40.123Z,3.97
2022-10-20T13:26:17.621Z,8.95
2022-10-20T13:28:48.872Z,6.53
2022-10-20T13:31:37.005Z,5.32
2022-10-20T13:34:19.599Z,7.50
2022-10-20T13:37:22.709Z,6.90
2022-10-20T13:40:18.840Z,9.73
2022-10-20T13:43:21.258Z,6.22
2022-10-20T13:46:08.798Z,6.05
2022-10-20T13:48:48.333Z,11.43
2022-10-20T13:51:28.016Z,5.85
2022-10-20T13:53:57.708Z,8.30
2022-10-20T13:56:37.187Z,6.20
2022-10-20T14:01:59.510Z,7.35
2022-10-20T14:04:34.738Z,8.68
2022-10-20T14:07:13.246Z,8.07
2022-10-20T14:09:43.583Z,6.53
2022-10-20T14:12:24.504Z,10.75
2022-10-20T14:14:51.000Z,13.15
2022-10-20T14:17:23.251Z,8.13
2022-10-20T14:19:50.223Z,12.10
2022-10-20T14:22:22.952Z,6.65
2022-10-20T14:24:55.983Z,7.00
2022-10-20T14:27:25.880Z,5.43
2022-10-20T14:29:53.753Z,5.28
2022-10-20T14:32:26.240Z,5.65
2022-10-20T14:34:58.264Z,4.63
2022-10-20T14:37:32.116Z,10.80
2022-10-20T14:40:05.493Z,5.88
2022-10-20T14:42:33.545Z,10.82
2022-10-20T14:45:02.490Z,6.60
2022-10-20T14:47:37.697Z,7.43
2022-10-20T14:50:05.586Z,5.68
2022-10-20T14:52:35.581Z,10.50
2022-10-20T14:55:02.555Z,4.47
2022-10-20T14:57:37.571Z,4.55
2022-10-20T15:00:37.970Z,5.18
2022-10-20T15:03:07.106Z,6.65
2022-10-20T15:05:44.990Z,6.00
2022-10-20T15:08:17.447Z,7.70
2022-10-20T15:10:44.649Z,5.97
2022-10-20T15:13:27.712Z,4.63
2022-10-20T15:15:55.670Z,5.18
2022-10-20T15:18:23.954Z,6.05
2022-10-20T15:20:54.776Z,4.03
2022-10-20T15:23:28.663Z,6.07
2022-10-20T15:26:09.492Z,13.30
2022-10-20T15:28:46.191Z,5.82
2022-10-20T15:31:32.916Z,6.18
2022-10-20T15:33:59.617Z,5.72
2022-10-20T15:36:29.515Z,5.43
2022-10-20T15:38:56.574Z,7.60
2022-10-20T15:41:29.936Z,5.85
2022-10-20T15:43:56.747Z,7.35
2022-10-20T15:46:23.376Z,8.38
2022-10-20T15:48:49.936Z,9.95
2022-10-20T15:51:27.394Z,6.68
2022-10-20T15:53:54.560Z,6.38
2022-10-20T15:56:21.183Z,10.75
2022-10-20T15:58:50.032Z,12.57
2022-10-20T16:01:18.153Z,7.90
2022-10-20T16:03:45.340Z,6.13
2022-10-20T16:06:14.568Z,10.02
2022-10-20T16:08:42.465Z,8.38
2022-10-20T16:11:09.846Z,13.63
2022-10-20T16:13:40.182Z,9.23
2022-10-20T16:16:13.318Z,7.50
2022-10-20T16:18:39.800Z,9.02
2022-10-20T16:21:06.801Z,10.65
2022-10-20T16:23:39.461Z,13.75
2022-10-20T16:26:11.080Z,9.75
2022-10-20T16:28:37.871Z,10.68
2022-10-20T16:31:06.698Z,9.15
2022-10-20T16:33:33.902Z,9.35
2022-10-20T16:38:40.193Z,7.97
2022-10-20T16:41:16.154Z,12.07
2022-10-20T16:43:45.949Z,9.00
2022-10-20T16:46:14.402Z,10.75
2022-10-20T16:48:43.866Z,11.80
2022-10-20T16:51:12.622Z,12.33
2022-10-20T16:53:39.205Z,7.90
2022-10-20T16:56:06.409Z,9.93
2022-10-20T16:58:33.159Z,14.52
2022-10-20T17:01:06.350Z,9.93
2022-10-20T17:03:33.261Z,10.32
2022-10-20T17:06:03.042Z,10.35
2022-10-20T17:08:31.712Z,11.82
2022-10-20T17:11:04.263Z,12.85
2022-10-20T17:13:31.616Z,10.93
2022-10-20T17:16:07.963Z,10.15
2022-10-20T17:18:34.757Z,9.90
2022-10-20T17:21:01.364Z,10.38
2022-10-20T17:23:31.954Z,11.70
2022-10-20T17:26:03.321Z,11.43
2022-10-20T17:28:31.701Z,13.10
2022-10-20T17:30:58.568Z,10.68
2022-10-20T17:33:29.787Z,10.65
2022-10-20T17:36:01.087Z,11.68
2022-10-20T17:38:29.207Z,13.23
2022-10-20T17:40:55.728Z,15.20
2022-10-20T17:43:22.660Z,11.40
2022-10-20T17:45:56.997Z,10.20
2022-10-20T17:48:23.527Z,10.43
2022-10-20T17:50:59.639Z,12.70
2022-10-20T17:53:26.177Z,14.15
2022-10-20T17:55:52.583Z,13.88
2022-10-20T17:58:19.093Z,11.15
2022-10-20T18:00:56.084Z,14.10
2022-10-20T18:03:23.569Z,12.82
2022-10-20T18:05:50.029Z,17.80
2022-10-20T18:08:16.503Z,11.38
2022-10-20T18:10:43.882Z,10.23
2022-10-20T18:13:10.664Z,10.70
2022-10-20T18:15:42.217Z,13.80
2022-10-20T18:18:08.964Z,11.73
2022-10-20T18:20:35.423Z,15.00
2022-10-20T18:23:01.818Z,10.00
2022-10-20T18:25:28.249Z,7.82
2022-10-20T18:27:55.294Z,12.52
2022-10-20T18:30:21.737Z,8.45
2022-10-20T18:32:48.130Z,13.15
2022-10-20T18:35:14.664Z,11.23
2022-10-20T18:37:42.374Z,14.30
2022-10-20T18:40:09.146Z,8.20
2022-10-20T18:42:35.543Z,15.88
2022-10-20T18:45:01.998Z,9.82
2022-10-20T18:47:28.470Z,9.52
2022-10-20T18:49:54.867Z,12.95
2022-10-20T18:52:21.330Z,13.93
2022-10-20T18:54:47.764Z,10.63
2022-10-20T18:57:14.208Z,13.80
2022-10-20T18:59:40.758Z,11.30
2022-10-20T19:02:07.223Z,11.93
2022-10-20T19:04:33.652Z,9.88
2022-10-20T19:07:00.095Z,15.52
2022-10-20T19:09:26.504Z,11.85
2022-10-20T19:11:54.051Z,9.93
2022-10-20T19:14:20.638Z,12.27
2022-10-20T19:16:48.593Z,10.32
2022-10-20T19:19:15.778Z,10.10
2022-10-20T19:21:42.322Z,11.68
2022-10-20T19:24:14.257Z,12.20
2022-10-20T19:26:52.533Z,11.75
2022-10-20T19:29:28.804Z,11.75
2022-10-20T19:31:58.189Z,10.25
2022-10-20T19:34:31.475Z,13.68
2022-10-20T19:36:58.617Z,14.60
2022-10-20T19:39:32.483Z,11.98
2022-10-20T19:42:00.824Z,11.30
2022-10-20T19:44:27.871Z,13.57
2022-10-20T19:46:54.562Z,12.85
2022-10-20T19:49:22.793Z,10.32
2022-10-20T19:51:49.705Z,14.00
2022-10-20T19:54:16.441Z,13.20
2022-10-20T19:56:43.264Z,15.25
2022-10-20T19:59:10.074Z,14.95
2022-10-20T20:01:37.560Z,13.27
2022-10-20T20:04:05.079Z,16.00
2022-10-20T20:06:32.447Z,11.02
2022-10-20T20:09:01.775Z,12.02
2022-10-20T20:11:30.906Z,14.88
2022-10-20T20:14:01.061Z,12.95
2022-10-20T20:16:28.451Z,13.50
2022-10-20T20:18:55.269Z,12.45
2022-10-20T20:21:22.920Z,10.02
2022-10-20T20:23:59.416Z,12.52
2022-10-20T20:26:32.174Z,12.13
2022-10-20T20:28:59.225Z,12.15
2022-10-20T20:31:27.126Z,23.15
2022-10-20T20:33:54.450Z,14.00
2022-10-20T20:36:21.312Z,11.38
2022-10-20T20:38:48.006Z,13.40
2022-10-20T20:41:16.871Z,15.25
2022-10-20T20:43:46.994Z,12.35
2022-10-20T20:46:18.866Z,11.93
2022-10-20T20:48:45.829Z,17.50
2022-10-20T20:51:13.135Z,15.50
2022-10-20T20:53:40.670Z,12.98
2022-10-20T20:56:13.077Z,13.55
2022-10-20T20:58:41.872Z,11.77
2022-10-20T21:01:12.337Z,14.98
2022-10-20T21:03:38.987Z,12.70
2022-10-20T21:06:07.753Z,13.15
2022-10-20T21:08:37.816Z,19.17
2022-10-20T21:11:06.314Z,13.75
2022-10-20T21:13:34.109Z,15.18
2022-10-20T21:16:14.838Z,15.07
2022-10-20T21:18:42.906Z,12.27
2022-10-20T21:23:43.708Z,13.90
2022-10-20T21:26:11.441Z,13.45
2022-10-20T21:28:38.270Z,13.98
2022-10-20T21:31:06.305Z,9.85
2022-10-20T21:33:33.479Z,16.17
2022-10-20T21:36:05.071Z,15.95
2022-10-20T21:41:04.103Z,13.88
2022-10-20T21:43:31.760Z,12.02
2022-10-20T21:46:12.939Z,15.57
2022-10-20T21:48:40.403Z,11.38
2022-10-20T21:51:08.689Z,13.35
2022-10-20T21:53:35.185Z,14.23
2022-10-20T21:56:01.655Z,15.48
2022-10-20T21:58:28.083Z,21.98
2022-10-20T22:00:56.044Z,15.50
2022-10-20T22:03:23.341Z,17.58
2022-10-20T22:05:49.935Z,16.20
2022-10-20T22:08:16.451Z,16.90
2022-10-20T22:10:42.891Z,12.02
2022-10-20T22:13:09.415Z,14.48
2022-10-20T22:15:39.790Z,12.88
2022-10-20T22:18:06.338Z,14.15
2022-10-20T22:20:36.399Z,15.13
2022-10-20T22:23:04.090Z,16.33
2022-10-20T22:25:30.479Z,12.32
2022-10-20T22:27:56.894Z,13.88
2022-10-20T22:30:23.376Z,14.27
2022-10-20T22:32:49.802Z,12.48
2022-10-20T22:35:16.301Z,13.13
2022-10-20T22:37:42.698Z,18.67
2022-10-20T22:40:09.399Z,16.00
2022-10-20T22:42:35.803Z,14.95
2022-10-20T22:45:02.267Z,16.08
2022-10-20T22:47:28.675Z,16.13
2022-10-20T22:49:55.280Z,13.60
2022-10-20T22:52:21.696Z,24.90
2022-10-20T22:54:48.214Z,14.90
2022-10-20T22:57:14.631Z,15.75
2022-10-20T22:59:41.066Z,14.80
2022-10-20T23:02:07.486Z,20.65
2022-10-20T23:04:33.870Z,15.70
2022-10-20T23:09:29.509Z,14.30
2022-10-20T23:11:55.905Z,14.65
2022-10-20T23:14:22.366Z,16.25
2022-10-20T23:16:48.727Z,17.90
2022-10-20T23:19:15.114Z,18.20
2022-10-20T23:21:41.595Z,14.07
2022-10-20T23:24:08.010Z,17.55
2022-10-20T23:26:34.470Z,16.42
2022-10-20T23:29:00.873Z,17.50
2022-10-20T23:31:27.577Z,17.45
2022-10-20T23:33:55.328Z,16.42
2022-10-20T23:36:22.751Z,18.08
2022-10-20T23:38:49.167Z,13.70
2022-10-20T23:41:15.650Z,12.77
2022-10-20T23:43:42.160Z,17.02
2022-10-20T23:46:09.066Z,17.33
2022-10-20T23:48:35.891Z,16.80
2022-10-20T23:51:02.427Z,14.93
2022-10-20T23:53:28.845Z,15.57
2022-10-20T23:55:55.275Z,17.88
2022-10-20T23:58:23.117Z,14.23
